Time;durP1;ratioP1;P1;durP2;ratioP2;P2;SDS_P1;SDS_P2;PMS_P1;PMS_P2;Temp;Humidity;BMP_temperature;BMP_pressure;BME280_temperature;BME280_humidity;BME280_pressure;Samples;Min_cycle;Max_cycle;Signal;HPM_P1;HPM_P2
2021/10/31 00:00:05;;;;;;;39.63;29.77;;;;;;;9.44;88.80;99813.88;5054044;28;20389;-76
2021/10/31 00:02:31;;;;;;;39.58;30.15;;;;;;;9.45;88.65;99825.53;5045908;28;20405;-76
2021/10/31 00:08:18;;;;;;;38.93;28.30;;;;;;;9.46;88.79;99809.03;3538006;28;20443;-76
2021/10/31 00:10:43;;;;;;;42.93;29.80;;;;;;;9.45;88.72;99815.50;5054189;28;20441;-76
2021/10/31 00:13:10;;;;;;;41.50;30.40;;;;;;;9.43;88.42;99820.34;5052615;28;20534;-76
2021/10/31 00:15:35;;;;;;;38.83;30.73;;;;;;;9.42;88.42;99834.94;5051723;28;20748;-76
2021/10/31 00:18:01;;;;;;;34.63;27.17;;;;;;;9.41;88.84;99819.78;5049065;28;20465;-76
2021/10/31 00:20:26;;;;;;;35.57;27.27;;;;;;;9.41;88.87;99830.63;5042324;28;20393;-76
2021/10/31 00:22:51;;;;;;;34.23;27.33;;;;;;;9.40;88.68;99820.84;5049559;28;20880;-76
2021/10/31 00:25:16;;;;;;;33.40;26.63;;;;;;;9.39;88.71;99816.50;5040872;28;20468;-76
2021/10/31 00:27:42;;;;;;;37.27;25.77;;;;;;;9.37;88.83;99814.06;5052988;28;20405;-76
2021/10/31 00:30:08;;;;;;;31.03;25.50;;;;;;;9.37;88.66;99824.06;5050807;28;20472;-76
2021/10/31 00:32:34;;;;;;;29.90;24.42;;;;;;;9.37;88.59;99824.88;5051362;28;20399;-76
2021/10/31 00:34:59;;;;;;;32.83;24.42;;;;;;;9.37;88.46;99822.19;5048324;28;20422;-76
2021/10/31 00:37:24;;;;;;;32.73;25.97;;;;;;;9.36;88.43;99817.00;5049302;28;21036;-76
2021/10/31 00:39:50;;;;;;;36.90;26.77;;;;;;;9.32;88.34;99807.75;5053055;28;20401;-76
2021/10/31 00:42:16;;;;;;;37.53;26.48;;;;;;;9.27;88.54;99819.34;5048024;28;20393;-76
2021/10/31 00:44:41;;;;;;;32.92;25.90;;;;;;;9.23;88.58;99803.88;5048923;28;20476;-76
2021/10/31 00:47:07;;;;;;;32.43;25.17;;;;;;;9.17;88.50;99824.63;5052064;28;20472;-76
2021/10/31 00:49:32;;;;;;;41.70;29.30;;;;;;;9.14;88.98;99832.44;5041825;28;20419;-76
2021/10/31 00:51:59;;;;;;;32.87;25.53;;;;;;;9.14;89.17;99827.00;5048945;28;20953;-76
2021/10/31 00:54:24;;;;;;;31.50;25.65;;;;;;;9.17;88.93;99824.63;5047291;28;20448;-76
2021/10/31 00:56:50;;;;;;;32.80;25.03;;;;;;;9.18;89.29;99833.56;5047067;28;20475;-76
2021/10/31 00:59:15;;;;;;;39.03;25.57;;;;;;;9.20;88.74;99815.19;5044285;28;20444;-76
2021/10/31 01:01:41;;;;;;;35.72;24.90;;;;;;;9.18;88.71;99822.75;5047787;28;20753;-76
2021/10/31 01:04:07;;;;;;;47.13;27.42;;;;;;;9.17;88.76;99813.81;5047290;28;20402;-76
2021/10/31 01:07:01;;;;;;;36.47;26.27;;;;;;;9.18;88.83;99820.03;5049750;28;20424;-75
2021/10/31 01:10:03;;;;;;;35.67;25.27;;;;;;;9.15;88.63;99809.75;5046143;28;20927;-76
2021/10/31 01:12:58;;;;;;;35.33;26.15;;;;;;;9.11;88.58;99819.41;5045726;28;20759;-76
2021/10/31 01:15:42;;;;;;;44.30;28.73;;;;;;;9.09;89.25;99814.25;5051818;28;20462;-76
2021/10/31 01:18:25;;;;;;;35.85;25.40;;;;;;;9.09;89.23;99808.03;5045988;28;20496;-76
2021/10/31 01:21:27;;;;;;;36.90;26.42;;;;;;;9.12;89.37;99804.84;5049860;28;20401;-76
2021/10/31 01:23:58;;;;;;;32.30;23.80;;;;;;;9.15;89.07;99815.16;5042203;28;20409;-76
2021/10/31 01:26:48;;;;;;;35.43;25.40;;;;;;;9.17;88.90;99808.41;5048921;28;20436;-76
2021/10/31 01:29:35;;;;;;;31.67;23.45;;;;;;;9.18;89.12;99810.06;5051195;28;20949;-76
2021/10/31 01:32:25;;;;;;;36.42;24.48;;;;;;;9.15;89.03;99802.44;5046205;28;20397;-76
2021/10/31 01:35:09;;;;;;;32.15;24.77;;;;;;;9.17;89.17;99810.28;5041569;28;20420;-76
2021/10/31 01:38:15;;;;;;;34.17;24.77;;;;;;;9.17;89.06;99799.47;5048345;28;20421;-76
2021/10/31 01:40:56;;;;;;;33.60;25.07;;;;;;;9.18;89.39;99793.84;5036714;28;20421;-76
2021/10/31 01:43:31;;;;;;;34.47;26.13;;;;;;;9.18;88.82;99803.81;5043544;28;20422;-76
2021/10/31 01:46:09;;;;;;;35.53;26.00;;;;;;;9.14;88.80;99803.50;5043661;28;20466;-76
2021/10/31 01:48:56;;;;;;;32.38;23.20;;;;;;;9.13;89.00;99806.44;5051450;28;20847;-76
2021/10/31 01:51:41;;;;;;;31.08;23.40;;;;;;;9.10;88.80;99794.25;5043637;28;20452;-76
2021/10/31 01:54:20;;;;;;;38.28;26.42;;;;;;;9.11;88.58;99800.50;5044593;28;20437;-76
2021/10/31 01:56:51;;;;;;;29.83;25.23;;;;;;;9.12;88.88;99796.72;5048757;28;20485;-76
2021/10/31 01:59:33;;;;;;;34.85;25.25;;;;;;;9.12;89.05;99796.72;5047171;28;20420;-76
2021/10/31 02:02:02;;;;;;;35.53;26.50;;;;;;;9.13;88.99;99801.88;5046431;28;20448;-76
2021/10/31 02:04:31;;;;;;;33.13;25.17;;;;;;;9.16;88.95;99808.66;5041971;28;21004;-76
2021/10/31 02:06:59;;;;;;;33.85;24.80;;;;;;;9.20;89.15;99815.19;5048685;28;20437;-76
2021/10/31 02:09:29;;;;;;;35.58;25.83;;;;;;;9.22;88.81;99821.97;5051711;28;20450;-76
2021/10/31 02:11:57;;;;;;;40.35;27.40;;;;;;;9.26;89.37;99812.31;5042547;28;20402;-76
2021/10/31 02:14:24;;;;;;;29.92;23.67;;;;;;;9.30;89.18;99804.50;5039886;28;20411;-76
2021/10/31 02:16:49;;;;;;;37.65;25.65;;;;;;;9.27;88.89;99792.31;5047890;28;20405;-76
2021/10/31 02:19:27;;;;;;;33.73;25.50;;;;;;;9.26;89.19;99787.16;5045328;28;20475;-76
2021/10/31 02:22:00;;;;;;;37.97;26.20;;;;;;;9.22;88.91;99791.44;5049718;28;20397;-76
2021/10/31 02:24:26;;;;;;;37.70;26.40;;;;;;;9.19;88.91;99795.44;5037409;28;20399;-76
2021/10/31 02:26:52;;;;;;;39.70;27.37;;;;;;;9.14;88.87;99790.00;5044524;28;20397;-76
2021/10/31 02:29:18;;;;;;;38.78;28.33;;;;;;;9.11;89.27;99787.78;5046228;28;20401;-76
2021/10/31 02:31:44;;;;;;;37.58;25.25;;;;;;;9.09;88.93;99791.81;5048891;28;20448;-76
2021/10/31 02:34:09;;;;;;;36.67;25.73;;;;;;;9.07;89.44;99800.16;5044805;28;20792;-76
2021/10/31 02:36:36;;;;;;;32.93;24.87;;;;;;;9.03;89.10;99793.63;5049448;28;20519;-76
2021/10/31 02:39:05;;;;;;;27.65;22.55;;;;;;;9.01;89.36;99786.84;5045745;28;20421;-76
2021/10/31 02:41:32;;;;;;;36.70;25.05;;;;;;;8.98;89.00;99796.28;5050372;28;20405;-76
2021/10/31 02:43:57;;;;;;;31.92;24.88;;;;;;;8.98;88.97;99790.06;5042260;28;20399;-76
2021/10/31 02:46:24;;;;;;;32.67;24.03;;;;;;;8.97;88.98;99788.41;5036536;28;20916;-76
2021/10/31 02:48:51;;;;;;;31.20;24.23;;;;;;;8.97;88.94;99780.31;5047489;28;20464;-76
2021/10/31 02:51:41;;;;;;;28.38;23.35;;;;;;;9.00;88.90;99783.31;5047813;28;20481;-76
2021/10/31 02:54:20;;;;;;;25.38;21.92;;;;;;;9.02;89.04;99785.78;5040312;28;20909;-76
2021/10/31 02:56:58;;;;;;;26.80;21.52;;;;;;;9.03;89.27;99777.41;5048698;28;20414;-76
2021/10/31 02:59:48;;;;;;;30.08;21.17;;;;;;;9.05;88.90;99785.28;5050684;28;20417;-76
2021/10/31 03:02:15;;;;;;;27.35;21.77;;;;;;;9.06;88.68;99781.50;5050087;28;20455;-76
2021/10/31 03:04:41;;;;;;;24.10;19.73;;;;;;;9.06;88.75;99779.59;5039942;28;20737;-76
2021/10/31 03:07:07;;;;;;;23.60;20.50;;;;;;;9.07;88.42;99775.03;5046680;28;20476;-76
2021/10/31 03:09:34;;;;;;;21.35;18.40;;;;;;;9.07;88.72;99781.25;5048371;28;20433;-75
2021/10/31 03:12:02;;;;;;;28.17;20.92;;;;;;;9.07;88.76;99786.66;5046340;28;20391;-75
2021/10/31 03:14:27;;;;;;;23.13;19.15;;;;;;;9.07;88.38;99780.44;5043425;28;20413;-75
2021/10/31 03:16:53;;;;;;;22.30;18.37;;;;;;;9.09;88.73;99787.22;5045722;28;20412;-75
2021/10/31 03:19:18;;;;;;;22.83;19.40;;;;;;;9.11;88.54;99786.97;5048810;28;20488;-75
2021/10/31 03:21:43;;;;;;;22.33;18.27;;;;;;;9.12;88.69;99777.81;5041285;28;20405;-75
2021/10/31 03:24:09;;;;;;;27.33;20.70;;;;;;;9.13;88.28;99780.25;5041113;28;20421;-75
2021/10/31 03:26:34;;;;;;;25.58;19.55;;;;;;;9.14;88.68;99771.06;5047722;28;20453;-76
2021/10/31 03:28:59;;;;;;;28.10;20.60;;;;;;;9.16;88.63;99773.50;5048730;28;20491;-75
2021/10/31 03:31:25;;;;;;;22.60;18.57;;;;;;;9.16;88.23;99781.63;5046550;28;20502;-75
2021/10/31 03:33:50;;;;;;;26.73;19.47;;;;;;;9.18;88.32;99774.09;5046665;28;20443;-75
2021/10/31 03:36:15;;;;;;;23.03;18.87;;;;;;;9.20;88.59;99770.06;5063473;28;20803;-75
2021/10/31 03:38:40;;;;;;;27.97;19.67;;;;;;;9.20;88.56;99774.66;5047236;28;20416;-75
2021/10/31 03:41:06;;;;;;;26.63;19.67;;;;;;;9.18;88.46;99768.69;5050773;28;20413;-75
2021/10/31 03:43:31;;;;;;;21.98;18.35;;;;;;;9.16;88.24;99773.50;5041429;28;20395;-76
2021/10/31 03:45:56;;;;;;;24.87;18.70;;;;;;;9.14;88.54;99771.06;5045467;28;20413;-75
2021/10/31 03:48:22;;;;;;;23.53;18.47;;;;;;;9.14;88.37;99772.94;5048097;28;20405;-75
2021/10/31 03:50:47;;;;;;;19.73;17.23;;;;;;;9.13;88.62;99777.53;5039601;28;20399;-75
2021/10/31 03:53:12;;;;;;;22.77;17.40;;;;;;;9.15;88.28;99780.00;5041310;28;20407;-75
2021/10/31 03:55:38;;;;;;;22.03;17.33;;;;;;;9.15;88.52;99777.31;5043887;28;20732;-76
2021/10/31 03:58:03;;;;;;;21.27;17.73;;;;;;;9.17;88.16;99778.69;5045997;28;20424;-75
2021/10/31 04:00:28;;;;;;;24.83;17.98;;;;;;;9.16;88.13;99765.41;5049838;28;20394;-75
2021/10/31 04:02:54;;;;;;;22.90;18.23;;;;;;;9.17;88.27;99765.16;5038024;28;20429;-76
2021/10/31 04:05:19;;;;;;;23.08;19.20;;;;;;;9.16;88.20;99750.00;5036132;28;20409;-76
2021/10/31 04:07:47;;;;;;;22.33;18.87;;;;;;;9.15;88.31;99751.09;5047336;28;20456;-75
2021/10/31 04:10:12;;;;;;;25.48;19.77;;;;;;;9.17;88.43;99746.25;5044410;28;20439;-75
2021/10/31 04:12:37;;;;;;;27.92;17.83;;;;;;;9.18;88.47;99738.94;5044518;28;20402;-75
2021/10/31 04:15:04;;;;;;;24.20;18.57;;;;;;;9.18;88.63;99737.06;5047422;28;20420;-75
2021/10/31 04:17:29;;;;;;;23.92;18.17;;;;;;;9.23;88.52;99739.00;5050772;28;20455;-75
2021/10/31 04:19:55;;;;;;;27.40;18.73;;;;;;;9.22;88.25;99740.09;5048865;28;20721;-75
2021/10/31 04:22:20;;;;;;;22.97;16.77;;;;;;;9.22;88.21;99759.00;5050825;28;20883;-75
2021/10/31 04:24:45;;;;;;;19.73;17.30;;;;;;;9.20;88.44;99766.53;5053213;28;20409;-75
2021/10/31 04:27:10;;;;;;;23.80;17.97;;;;;;;9.20;88.54;99771.94;5050754;28;20437;-75
2021/10/31 04:29:36;;;;;;;22.93;18.23;;;;;;;9.19;88.65;99756.78;5053931;28;20806;-75
2021/10/31 04:32:02;;;;;;;24.52;19.98;;;;;;;9.21;89.07;99751.97;5052065;28;20394;-76
2021/10/31 04:34:28;;;;;;;25.88;17.02;;;;;;;9.25;89.25;99747.69;5047979;28;20980;-75
2021/10/31 04:36:53;;;;;;;23.08;17.55;;;;;;;9.28;89.06;99747.19;5051937;28;20401;-75
2021/10/31 04:39:20;;;;;;;20.67;16.75;;;;;;;9.27;89.02;99738.25;5048759;28;20899;-75
2021/10/31 04:41:47;;;;;;;23.42;19.40;;;;;;;9.30;88.87;99740.44;5046578;28;20902;-75
2021/10/31 04:44:13;;;;;;;22.58;18.73;;;;;;;9.33;88.88;99731.81;5050161;28;20417;-75
2021/10/31 04:46:39;;;;;;;22.13;18.20;;;;;;;9.34;89.29;99738.03;5046401;28;20535;-76
2021/10/31 04:49:04;;;;;;;22.67;18.07;;;;;;;9.36;89.03;99731.31;5051060;28;20494;-76
2021/10/31 04:51:30;;;;;;;26.67;20.20;;;;;;;9.37;89.33;99730.25;5041051;28;20880;-77
2021/10/31 04:53:55;;;;;;;24.88;20.20;;;;;;;9.39;89.17;99728.09;5029642;28;20410;-76
2021/10/31 04:56:23;;;;;;;29.07;20.07;;;;;;;9.42;89.54;99732.16;5013942;28;20411;-75
2021/10/31 04:58:53;;;;;;;26.50;19.52;;;;;;;9.45;89.41;99733.56;5026019;28;20429;-75
2021/10/31 05:01:20;;;;;;;24.83;20.67;;;;;;;9.46;89.44;99736.00;5026284;28;20493;-75
2021/10/31 05:03:46;;;;;;;27.05;19.40;;;;;;;9.49;89.57;99737.38;5029957;28;20487;-76
2021/10/31 05:06:11;;;;;;;22.47;17.53;;;;;;;9.51;89.40;99740.66;5032175;28;20577;-75
2021/10/31 05:08:36;;;;;;;23.87;19.17;;;;;;;9.50;89.36;99737.13;5031286;28;20415;-75
2021/10/31 05:11:02;;;;;;;25.60;21.63;;;;;;;9.51;89.12;99743.34;5022409;28;20408;-75
2021/10/31 05:13:27;;;;;;;21.42;18.63;;;;;;;9.52;89.41;99750.38;5028556;28;20405;-75
2021/10/31 05:15:52;;;;;;;24.87;20.80;;;;;;;9.53;89.42;99750.13;5026953;28;20418;-75
2021/10/31 05:18:17;;;;;;;26.52;19.67;;;;;;;9.54;89.38;99753.66;5033014;28;20471;-75
2021/10/31 05:20:43;;;;;;;25.03;19.33;;;;;;;9.55;89.16;99747.19;5021486;28;20506;-76
2021/10/31 05:23:08;;;;;;;26.10;21.10;;;;;;;9.56;89.22;99746.09;5027930;28;20429;-75
2021/10/31 05:25:33;;;;;;;28.20;21.07;;;;;;;9.53;89.72;99744.72;5031133;28;20468;-75
2021/10/31 05:27:59;;;;;;;27.80;20.42;;;;;;;9.54;90.03;99740.97;5030744;28;20881;-75
2021/10/31 05:30:24;;;;;;;24.17;18.47;;;;;;;9.55;90.09;99737.16;5027928;28;20406;-75
2021/10/31 05:32:51;;;;;;;22.67;19.40;;;;;;;9.56;90.05;99746.91;5029343;28;20406;-75
2021/10/31 05:35:17;;;;;;;23.70;18.25;;;;;;;9.58;90.02;99741.28;5028541;28;20990;-75
2021/10/31 05:37:46;;;;;;;20.30;17.00;;;;;;;9.60;90.18;99756.16;5019331;28;20428;-75
2021/10/31 05:40:15;;;;;;;23.40;17.73;;;;;;;9.60;89.59;99750.75;5028705;28;20399;-75
2021/10/31 05:42:41;;;;;;;20.77;16.45;;;;;;;9.60;89.15;99741.81;5024102;28;20877;-75
2021/10/31 05:45:08;;;;;;;23.33;17.00;;;;;;;9.60;89.23;99736.41;5024558;28;20401;-75
2021/10/31 05:47:36;;;;;;;19.77;16.05;;;;;;;9.60;89.11;99728.28;5030543;28;20542;-75
2021/10/31 05:50:03;;;;;;;21.67;16.55;;;;;;;9.60;89.07;99720.19;5031712;28;20858;-75
2021/10/31 05:52:28;;;;;;;19.97;14.97;;;;;;;9.60;89.12;99714.78;5028703;28;20534;-75
2021/10/31 05:54:53;;;;;;;22.17;17.13;;;;;;;9.60;89.32;99726.41;5024381;28;20786;-75
2021/10/31 05:57:19;;;;;;;18.93;16.57;;;;;;;9.60;89.44;99728.28;5025747;28;20419;-75
2021/10/31 05:59:44;;;;;;;22.37;17.07;;;;;;;9.59;89.29;99719.34;5032234;28;20453;-75
2021/10/31 06:02:09;;;;;;;22.30;17.80;;;;;;;9.58;89.26;99716.94;5024759;28;20794;-76
2021/10/31 06:04:35;;;;;;;23.90;18.53;;;;;;;9.60;89.42;99712.06;5022419;28;20416;-76
2021/10/31 06:07:01;;;;;;;20.17;15.82;;;;;;;9.58;89.27;99709.59;5028398;28;20419;-75
2021/10/31 06:09:26;;;;;;;23.60;16.50;;;;;;;9.61;88.97;99713.72;5026187;28;20452;-75
2021/10/31 06:11:51;;;;;;;31.75;26.98;;;;;;;9.64;89.16;99714.00;5004285;28;20409;-76
2021/10/31 06:14:17;;;;;;;39.97;30.40;;;;;;;9.65;88.81;99712.13;5025430;28;20457;-75
2021/10/31 06:16:42;;;;;;;32.27;27.00;;;;;;;9.66;88.97;99711.84;5028423;28;20496;-75
2021/10/31 06:19:07;;;;;;;38.33;26.90;;;;;;;9.67;88.92;99721.63;5031792;28;20457;-75
2021/10/31 06:21:33;;;;;;;37.30;28.73;;;;;;;9.70;89.50;99721.09;5025044;28;20425;-75
2021/10/31 06:23:58;;;;;;;36.47;27.03;;;;;;;9.74;89.40;99719.50;5029004;28;20422;-75
2021/10/31 06:26:23;;;;;;;28.83;25.30;;;;;;;9.78;89.14;99700.88;5025621;28;20411;-76
2021/10/31 06:28:49;;;;;;;25.13;21.43;;;;;;;9.81;89.06;99694.94;5021110;28;20411;-75
2021/10/31 06:31:14;;;;;;;28.77;20.02;;;;;;;9.84;88.86;99699.84;5027932;28;20605;-75
2021/10/31 06:33:40;;;;;;;23.70;20.47;;;;;;;9.84;89.12;99686.31;5028520;28;20956;-75
2021/10/31 06:36:05;;;;;;;26.80;20.50;;;;;;;9.83;89.04;99692.78;5018840;28;20727;-75
2021/10/31 06:38:30;;;;;;;22.27;17.47;;;;;;;9.79;89.10;99687.06;5031471;28;20422;-75
2021/10/31 06:40:56;;;;;;;27.73;18.43;;;;;;;9.77;88.89;99701.94;5023886;28;20447;-76
2021/10/31 06:43:21;;;;;;;24.17;19.20;;;;;;;9.73;89.15;99701.63;5023967;28;20800;-75
2021/10/31 06:45:46;;;;;;;22.77;19.37;;;;;;;9.71;88.94;99701.09;5027357;28;20967;-75
2021/10/31 06:48:12;;;;;;;23.87;19.37;;;;;;;9.70;89.15;99698.63;5028551;28;20411;-76
2021/10/31 06:50:37;;;;;;;26.60;18.93;;;;;;;9.66;89.47;99700.22;5020172;28;20411;-75
2021/10/31 06:53:02;;;;;;;24.40;18.73;;;;;;;9.66;89.45;99700.22;5016068;28;20520;-75
2021/10/31 06:55:28;;;;;;;21.33;18.13;;;;;;;9.66;89.49;99705.63;5014463;28;20407;-76
2021/10/31 06:57:55;;;;;;;26.25;20.00;;;;;;;9.66;89.20;99709.16;5027589;28;20416;-75
2021/10/31 07:00:22;;;;;;;24.15;18.80;;;;;;;9.70;89.56;99704.88;5025251;28;20438;-76
2021/10/31 07:02:48;;;;;;;20.13;17.20;;;;;;;9.70;89.32;99699.44;5022972;28;20498;-75
2021/10/31 07:05:13;;;;;;;19.60;17.53;;;;;;;9.69;89.06;99691.56;5027095;28;20449;-76
2021/10/31 07:07:39;;;;;;;24.80;17.70;;;;;;;9.70;89.23;99695.94;5018254;28;21047;-76
2021/10/31 07:10:05;;;;;;;21.27;17.03;;;;;;;9.71;89.04;99695.69;5027353;28;20411;-75
2021/10/31 07:12:30;;;;;;;24.65;19.90;;;;;;;9.71;89.40;99700.28;5021420;28;20397;-76
2021/10/31 07:14:55;;;;;;;21.37;16.63;;;;;;;9.75;89.27;99694.06;5022851;28;20551;-76
2021/10/31 07:17:21;;;;;;;20.20;16.53;;;;;;;9.81;89.24;99689.53;5027651;28;20524;-75
2021/10/31 07:19:46;;;;;;;18.13;15.93;;;;;;;9.87;89.34;99685.78;5028092;28;20977;-74
2021/10/31 07:22:11;;;;;;;17.60;15.43;;;;;;;9.96;88.92;99681.53;5021374;28;20407;-75
2021/10/31 07:24:38;;;;;;;20.23;16.30;;;;;;;10.02;89.00;99671.53;5027979;28;20469;-75
2021/10/31 07:27:03;;;;;;;16.92;15.15;;;;;;;10.09;88.89;99672.13;5029461;28;20878;-74
2021/10/31 07:29:29;;;;;;;18.60;15.30;;;;;;;10.16;88.71;99668.16;5025858;28;20443;-74
2021/10/31 07:31:54;;;;;;;15.80;13.57;;;;;;;10.21;88.51;99660.06;5022537;28;20414;-74
2021/10/31 07:34:24;;;;;;;15.50;13.67;;;;;;;10.22;88.65;99659.00;5027524;28;20824;-75
2021/10/31 07:36:50;;;;;;;14.85;13.25;;;;;;;10.24;88.62;99656.81;5020957;28;20396;-75
2021/10/31 07:39:15;;;;;;;16.83;13.27;;;;;;;10.26;88.63;99660.09;5025232;28;20433;-74
2021/10/31 07:41:40;;;;;;;14.33;12.90;;;;;;;10.29;88.97;99647.91;5024384;28;20399;-75
2021/10/31 07:44:06;;;;;;;13.90;12.43;;;;;;;10.28;89.05;99654.41;5022836;28;20502;-75
2021/10/31 07:46:33;;;;;;;20.50;15.10;;;;;;;10.25;88.91;99653.03;5025900;28;20399;-75
2021/10/31 07:48:59;;;;;;;18.77;15.13;;;;;;;10.24;89.33;99654.13;5025840;28;20437;-75
2021/10/31 07:51:24;;;;;;;20.33;15.50;;;;;;;10.26;89.58;99656.56;5020071;28;20455;-76
2021/10/31 07:53:50;;;;;;;27.50;20.92;;;;;;;10.27;89.82;99653.59;5021185;28;20418;-75
2021/10/31 07:56:16;;;;;;;36.37;28.80;;;;;;;10.32;90.03;99650.09;5027269;28;20403;-75
2021/10/31 07:58:43;;;;;;;34.92;26.23;;;;;;;10.39;89.81;99651.50;5031699;28;20423;-75
2021/10/31 08:01:11;;;;;;;34.33;24.90;;;;;;;10.46;89.94;99655.88;5021694;28;20407;-74
2021/10/31 08:03:36;;;;;;;35.13;24.60;;;;;;;10.53;89.91;99645.63;5023810;28;20411;-76
2021/10/31 08:06:02;;;;;;;34.42;26.50;;;;;;;10.63;89.63;99649.19;5024686;28;20408;-76
2021/10/31 08:08:28;;;;;;;30.80;24.93;;;;;;;10.73;89.85;99648.41;5022513;28;20417;-76
2021/10/31 08:10:53;;;;;;;27.42;23.77;;;;;;;10.80;89.67;99646.28;5026171;28;20423;-76
2021/10/31 08:13:26;;;;;;;25.43;21.63;;;;;;;10.85;89.69;99652.50;5013843;28;20401;-76
2021/10/31 08:15:53;;;;;;;22.17;18.73;;;;;;;10.98;89.60;99632.22;5023076;28;20407;-76
2021/10/31 08:18:20;;;;;;;24.90;20.70;;;;;;;11.07;89.31;99633.31;5024619;28;20921;-76
2021/10/31 08:20:46;;;;;;;25.60;21.52;;;;;;;11.19;89.28;99635.78;5023647;28;20418;-76
2021/10/31 08:23:14;;;;;;;21.95;19.65;;;;;;;11.43;89.14;99640.44;5022814;28;20400;-76
2021/10/31 08:25:40;;;;;;;21.33;19.13;;;;;;;11.72;88.43;99632.59;5015943;28;20444;-76
2021/10/31 08:28:08;;;;;;;22.07;19.30;;;;;;;12.16;87.41;99629.28;5020588;28;20845;-76
2021/10/31 08:30:34;;;;;;;20.75;18.65;;;;;;;12.63;85.92;99620.69;5024191;28;20396;-76
2021/10/31 08:33:19;;;;;;;23.08;20.63;;;;;;;12.89;85.08;99616.78;5018438;28;20904;-76
2021/10/31 08:35:45;;;;;;;26.55;22.48;;;;;;;12.74;85.16;99616.84;5023479;28;20400;-77
2021/10/31 08:38:10;;;;;;;27.80;23.35;;;;;;;12.52;85.93;99617.22;5027254;28;20507;-76
2021/10/31 08:40:37;;;;;;;32.88;28.08;;;;;;;12.37;86.65;99618.09;5021411;28;20827;-76
2021/10/31 08:43:03;;;;;;;48.58;35.70;;;;;;;12.31;87.43;99611.06;5016113;28;20427;-75
2021/10/31 08:45:28;;;;;;;46.73;32.73;;;;;;;12.49;87.30;99615.03;5013902;28;20883;-76
2021/10/31 08:47:53;;;;;;;40.03;29.70;;;;;;;12.77;87.34;99613.56;5022467;28;20399;-76
2021/10/31 08:50:19;;;;;;;33.67;25.00;;;;;;;13.10;86.60;99610.16;5026007;28;20903;-76
2021/10/31 08:52:44;;;;;;;18.60;16.57;;;;;;;13.24;85.37;99597.53;5041295;28;20413;-76
2021/10/31 08:55:09;;;;;;;14.43;12.27;;;;;;;13.31;85.24;99595.31;5027092;28;20395;-76
2021/10/31 08:57:34;;;;;;;14.93;12.60;;;;;;;13.38;85.17;99593.06;5027566;28;20411;-76
2021/10/31 09:00:00;;;;;;;14.20;12.73;;;;;;;13.79;83.91;99587.28;5024600;28;20402;-76
2021/10/31 09:02:27;;;;;;;11.57;10.38;;;;;;;13.95;83.43;99594.22;5022732;28;20491;-76
2021/10/31 09:04:52;;;;;;;10.75;9.20;;;;;;;13.97;83.40;99584.66;5019960;28;20459;-76
2021/10/31 09:07:18;;;;;;;11.00;9.97;;;;;;;13.91;83.31;99582.25;5029442;28;20426;-76
2021/10/31 09:09:44;;;;;;;10.03;9.03;;;;;;;13.81;83.74;99576.91;5029505;28;20834;-76
2021/10/31 09:12:10;;;;;;;11.00;9.77;;;;;;;13.68;83.13;99586.56;5027524;28;20410;-76
2021/10/31 09:14:36;;;;;;;9.20;8.30;;;;;;;13.56;83.24;99585.31;5029653;28;20403;-76
2021/10/31 09:17:01;;;;;;;11.57;8.87;;;;;;;13.49;84.11;99585.66;5032485;28;20410;-76
2021/10/31 09:19:26;;;;;;;9.20;8.10;;;;;;;13.47;82.89;99576.94;5018350;28;20402;-76
2021/10/31 09:21:53;;;;;;;11.10;9.33;;;;;;;13.50;83.32;99566.28;5026717;28;20901;-76
2021/10/31 09:24:19;;;;;;;9.52;8.63;;;;;;;13.65;83.15;99564.53;5025466;28;20877;-76
2021/10/31 09:26:44;;;;;;;7.13;6.45;;;;;;;13.85;81.29;99567.91;5026225;28;20411;-77
2021/10/31 09:29:10;;;;;;;8.90;8.00;;;;;;;14.07;81.79;99563.84;5017541;28;20406;-76
2021/10/31 09:31:35;;;;;;;7.67;7.07;;;;;;;14.43;81.04;99557.72;5033376;28;20387;-76
2021/10/31 09:34:00;;;;;;;8.65;7.85;;;;;;;14.92;79.04;99551.88;5022152;28;20393;-76
2021/10/31 09:36:26;;;;;;;10.07;9.07;;;;;;;15.40;77.02;99549.75;5024463;28;20403;-76
2021/10/31 09:38:53;;;;;;;7.03;6.50;;;;;;;15.50;76.01;99549.63;5016446;28;20763;-76
2021/10/31 09:41:19;;;;;;;9.23;7.25;;;;;;;15.91;74.87;99541.50;5012347;28;20733;-77
2021/10/31 09:43:49;;;;;;;7.78;7.10;;;;;;;16.79;71.64;99539.47;5022711;28;20443;-76
2021/10/31 09:46:14;;;;;;;6.32;5.82;;;;;;;18.10;66.75;99539.72;5013245;28;20436;-77
2021/10/31 09:48:39;;;;;;;6.70;6.20;;;;;;;18.70;65.36;99533.63;5029479;28;20434;-76
2021/10/31 09:51:05;;;;;;;6.70;6.00;;;;;;;18.71;65.39;99543.47;5019544;28;20874;-76
2021/10/31 09:53:31;;;;;;;6.20;5.60;;;;;;;18.18;66.89;99537.34;5021847;28;20397;-76
2021/10/31 09:55:57;;;;;;;6.47;5.87;;;;;;;17.84;69.15;99538.00;5021224;28;20517;-76
2021/10/31 09:58:33;;;;;;;8.20;6.82;;;;;;;17.63;68.52;99534.97;5015485;28;20428;-77
2021/10/31 10:00:58;;;;;;;6.47;5.90;;;;;;;17.25;67.91;99537.28;5028369;28;20403;-76
2021/10/31 10:06:18;;;;;;;9.88;7.00;;;;;;;16.39;71.99;99530.16;5017118;28;20504;-76
2021/10/31 10:09:05;;;;;;;8.02;7.28;;;;;;;16.18;73.45;99528.97;5014899;28;20424;-76
2021/10/31 10:11:42;;;;;;;8.50;6.35;;;;;;;15.96;72.23;99526.94;5025210;28;20919;-76
2021/10/31 10:14:16;;;;;;;7.03;6.13;;;;;;;15.81;74.77;99529.94;5023953;28;20396;-76
2021/10/31 10:16:42;;;;;;;7.85;6.63;;;;;;;15.84;75.73;99513.75;5012493;28;20563;-76
2021/10/31 10:19:22;;;;;;;8.18;7.00;;;;;;;15.86;75.72;99508.00;5022534;28;20419;-76
2021/10/31 10:21:56;;;;;;;10.05;7.57;;;;;;;15.86;76.80;99495.16;5028346;28;20396;-76
2021/10/31 10:24:23;;;;;;;7.43;5.35;;;;;;;15.82;75.78;99491.41;5017324;28;20838;-76
2021/10/31 10:26:49;;;;;;;8.27;6.88;;;;;;;15.73;75.88;99489.69;5021888;28;20411;-76
2021/10/31 10:29:18;;;;;;;9.65;6.70;;;;;;;15.75;75.01;99490.16;5032522;28;20390;-76
2021/10/31 10:31:52;;;;;;;7.97;6.20;;;;;;;15.85;74.49;99484.50;5017033;28;20421;-76
2021/10/31 10:34:47;;;;;;;10.52;5.90;;;;;;;15.96;75.26;99483.22;5032122;28;20723;-76
2021/10/31 10:37:16;;;;;;;6.55;5.60;;;;;;;15.97;74.21;99477.44;5018376;28;20443;-76
2021/10/31 10:39:43;;;;;;;6.70;5.47;;;;;;;16.00;74.05;99470.56;5029687;28;20415;-76
2021/10/31 10:42:17;;;;;;;6.93;6.23;;;;;;;15.96;73.64;99467.63;5030461;28;20882;-76
2021/10/31 10:44:42;;;;;;;4.65;4.35;;;;;;;15.91;73.12;99465.00;5021353;28;20419;-76
2021/10/31 10:47:12;;;;;;;7.03;5.30;;;;;;;15.85;73.99;99457.19;5030247;28;20397;-76
2021/10/31 10:49:40;;;;;;;5.13;4.63;;;;;;;15.73;76.44;99465.91;5015904;28;20397;-77
2021/10/31 10:52:21;;;;;;;5.03;4.53;;;;;;;15.67;74.84;99458.94;5031842;28;20399;-76
2021/10/31 10:54:56;;;;;;;4.85;4.43;;;;;;;15.75;74.89;99452.75;5018033;28;20424;-76
2021/10/31 10:57:24;;;;;;;5.07;4.77;;;;;;;15.86;74.86;99448.72;5028703;28;20441;-76
2021/10/31 10:59:53;;;;;;;5.05;4.65;;;;;;;15.79;75.41;99451.03;5017368;28;20399;-76
2021/10/31 11:02:20;;;;;;;4.65;4.25;;;;;;;15.65;75.37;99452.94;5031587;28;20842;-76
2021/10/31 11:04:51;;;;;;;4.28;3.97;;;;;;;15.54;74.69;99451.53;5018928;28;20464;-76
2021/10/31 11:07:16;;;;;;;5.25;4.57;;;;;;;15.39;75.27;99441.66;5024218;28;20905;-76
2021/10/31 11:09:47;;;;;;;4.03;3.65;;;;;;;15.25;75.54;99446.28;5017392;28;20490;-76
2021/10/31 11:12:26;;;;;;;6.10;3.83;;;;;;;15.13;76.40;99436.94;5031467;28;20449;-76
2021/10/31 11:15:14;;;;;;;4.13;3.78;;;;;;;15.04;77.52;99432.19;5025084;28;20395;-76
2021/10/31 11:17:41;;;;;;;5.23;4.40;;;;;;;15.05;79.37;99436.50;5025246;28;22355;-76
2021/10/31 11:20:08;;;;;;;4.80;4.40;;;;;;;15.13;80.01;99426.03;5020945;28;20448;-76
2021/10/31 11:22:35;;;;;;;5.57;4.00;;;;;;;15.25;79.39;99418.16;5031349;28;20459;-76
2021/10/31 11:25:01;;;;;;;5.37;3.90;;;;;;;15.50;77.80;99410.38;5014502;28;20743;-76
2021/10/31 11:27:30;;;;;;;3.33;3.03;;;;;;;15.83;76.50;99402.06;5018066;28;20477;-76
2021/10/31 11:33:49;;;;;;;4.00;3.10;;;;;;;16.30;73.74;99387.09;5021175;28;20956;-76
2021/10/31 11:36:16;;;;;;;2.70;2.50;;;;;;;16.29;73.48;99366.34;5021036;28;20896;-76
2021/10/31 11:38:43;;;;;;;3.40;3.10;;;;;;;16.27;73.38;99366.63;5026984;28;20752;-76
2021/10/31 11:41:10;;;;;;;2.67;2.55;;;;;;;16.28;73.55;99356.53;5025793;28;20949;-76